createdAt,value
2023-01-07T00:01:36.861Z,6.65
2023-01-07T00:04:05.252Z,6.43
2023-01-07T00:06:34.933Z,7.00
2023-01-07T00:09:02.616Z,6.40
2023-01-07T00:11:35.652Z,6.18
2023-01-07T00:14:04.333Z,5.60
2023-01-07T00:16:33.029Z,5.60
2023-01-07T00:19:01.316Z,5.82
2023-01-07T00:21:31.039Z,6.32
2023-01-07T00:24:00.381Z,6.20
2023-01-07T00:26:30.868Z,4.50
2023-01-07T00:29:00.270Z,5.15
2023-01-07T00:31:29.476Z,4.43
2023-01-07T00:33:59.401Z,4.32
2023-01-07T00:36:28.606Z,4.18
2023-01-07T00:38:59.597Z,4.18
2023-01-07T00:41:26.884Z,3.42
2023-01-07T00:43:53.737Z,3.10
2023-01-07T00:46:21.015Z,4.15
2023-01-07T00:48:47.945Z,3.78
2023-01-07T00:51:15.846Z,3.90
2023-01-07T00:53:45.629Z,4.20
2023-01-07T00:56:14.574Z,5.03
2023-01-07T00:58:41.888Z,4.88
2023-01-07T01:01:10.877Z,5.00
2023-01-07T01:03:38.585Z,4.78
2023-01-07T01:06:09.559Z,4.57
2023-01-07T01:08:36.217Z,5.40
2023-01-07T01:11:08.041Z,5.90
2023-01-07T01:13:36.032Z,6.57
2023-01-07T01:16:09.358Z,7.55
2023-01-07T01:18:36.714Z,8.20
2023-01-07T01:21:06.821Z,8.02
2023-01-07T01:23:38.293Z,7.28
2023-01-07T01:26:05.819Z,5.53
2023-01-07T01:28:33.924Z,5.13
2023-01-07T01:31:00.782Z,6.10
2023-01-07T01:33:30.307Z,5.70
2023-01-07T01:35:57.172Z,5.93
2023-01-07T01:38:26.114Z,6.03
2023-01-07T01:40:52.763Z,5.88
2023-01-07T01:43:33.191Z,6.07
2023-01-07T01:46:29.158Z,5.63
2023-01-07T01:49:04.869Z,5.40
2023-01-07T01:51:34.753Z,5.80
2023-01-07T01:54:07.007Z,5.63
2023-01-07T01:56:37.152Z,5.82
2023-01-07T01:59:08.479Z,6.00
2023-01-07T02:01:37.020Z,5.13
2023-01-07T02:04:11.287Z,6.63
2023-01-07T02:06:44.054Z,6.93
2023-01-07T02:09:14.379Z,6.22
2023-01-07T02:11:51.789Z,5.63
2023-01-07T02:14:39.378Z,5.55
2023-01-07T02:17:29.651Z,4.35
2023-01-07T02:20:33.512Z,5.32
2023-01-07T02:23:31.143Z,4.30
2023-01-07T02:26:01.356Z,4.10
2023-01-07T02:28:46.600Z,4.60
2023-01-07T02:31:54.850Z,3.70
2023-01-07T02:34:44.218Z,3.20
2023-01-07T02:37:26.824Z,3.67
2023-01-07T02:40:21.185Z,3.58
2023-01-07T02:45:33.890Z,3.60
2023-01-07T02:48:05.233Z,3.83
2023-01-07T02:50:32.238Z,3.28
2023-01-07T02:52:58.780Z,3.50
2023-01-07T02:56:09.148Z,3.40
2023-01-07T02:58:35.641Z,3.85
2023-01-07T03:01:17.404Z,3.58
2023-01-07T03:04:06.026Z,3.63
2023-01-07T03:06:43.447Z,3.50
2023-01-07T03:09:28.295Z,3.72
2023-01-07T03:11:59.023Z,3.00
2023-01-07T03:14:43.742Z,3.47
2023-01-07T03:17:17.334Z,3.40
2023-01-07T03:19:52.399Z,3.60
2023-01-07T03:22:22.310Z,3.22
2023-01-07T03:24:51.704Z,3.28
2023-01-07T03:27:20.521Z,3.22
2023-01-07T03:29:52.879Z,3.55
2023-01-07T03:32:27.139Z,3.15
2023-01-07T03:34:54.191Z,3.30
2023-01-07T03:37:23.497Z,3.00
2023-01-07T03:39:50.275Z,3.20
2023-01-07T03:42:40.630Z,3.20
2023-01-07T03:45:14.729Z,3.00
2023-01-07T03:47:44.360Z,3.25
2023-01-07T03:50:14.188Z,2.92
2023-01-07T03:52:40.881Z,2.80
2023-01-07T03:55:07.838Z,2.78
2023-01-07T03:57:34.397Z,2.80
2023-01-07T04:00:01.347Z,2.65
2023-01-07T04:02:28.200Z,3.20
2023-01-07T04:04:54.941Z,3.03
2023-01-07T04:07:21.498Z,2.60
2023-01-07T04:09:49.605Z,3.20
2023-01-07T04:12:16.669Z,2.88
2023-01-07T04:14:45.624Z,3.08
2023-01-07T04:17:14.627Z,3.00
2023-01-07T04:19:41.181Z,2.95
2023-01-07T04:22:10.410Z,3.00
2023-01-07T04:24:36.972Z,2.83
2023-01-07T04:27:03.944Z,2.88
2023-01-07T04:29:30.720Z,3.10
2023-01-07T04:31:57.833Z,2.63
2023-01-07T04:34:28.670Z,3.08
2023-01-07T04:36:55.359Z,2.80
2023-01-07T04:39:21.951Z,2.83
2023-01-07T04:41:48.499Z,3.08
2023-01-07T04:44:17.486Z,2.97
2023-01-07T04:46:44.993Z,2.72
2023-01-07T04:49:11.793Z,2.78
2023-01-07T04:51:38.390Z,2.78
2023-01-07T04:54:07.395Z,2.70
2023-01-07T04:56:34.019Z,2.72
2023-01-07T04:59:00.598Z,2.92
2023-01-07T05:01:31.003Z,2.72
2023-01-07T05:03:57.837Z,2.80
2023-01-07T05:06:24.736Z,2.58
2023-01-07T05:08:52.652Z,2.90
2023-01-07T05:11:21.837Z,2.80
2023-01-07T05:13:52.286Z,2.55
2023-01-07T05:16:19.215Z,2.50
2023-01-07T05:18:45.951Z,2.70
2023-01-07T05:21:12.676Z,2.80
2023-01-07T05:23:39.443Z,3.00
2023-01-07T05:26:06.440Z,2.70
2023-01-07T05:28:32.997Z,2.72
2023-01-07T05:30:59.639Z,2.80
2023-01-07T05:33:26.264Z,2.88
2023-01-07T05:35:53.063Z,2.40
2023-01-07T05:38:19.644Z,2.78
2023-01-07T05:40:50.216Z,2.63
2023-01-07T05:43:17.511Z,2.72
2023-01-07T05:45:45.891Z,2.83
2023-01-07T05:48:13.638Z,2.75
2023-01-07T05:50:40.372Z,2.72
2023-01-07T05:53:06.939Z,2.60
2023-01-07T05:55:33.859Z,2.90
2023-01-07T05:58:00.733Z,2.50
2023-01-07T06:00:27.375Z,2.53
2023-01-07T06:02:53.942Z,2.53
2023-01-07T06:05:22.896Z,2.70
2023-01-07T06:07:49.568Z,2.72
2023-01-07T06:10:16.239Z,3.08
2023-01-07T06:12:42.820Z,2.80
2023-01-07T06:15:09.773Z,2.80
2023-01-07T06:17:36.571Z,3.10
2023-01-07T06:20:03.527Z,3.47
2023-01-07T06:22:30.148Z,3.78
2023-01-07T06:24:56.730Z,3.92
2023-01-07T06:27:23.449Z,2.70
2023-01-07T06:29:50.024Z,2.78
2023-01-07T06:32:16.627Z,2.70
2023-01-07T06:34:43.263Z,2.45
2023-01-07T06:37:14.936Z,2.10
2023-01-07T06:39:43.819Z,2.38
2023-01-07T06:42:10.515Z,2.20
2023-01-07T06:44:37.152Z,2.30
2023-01-07T06:47:03.864Z,2.70
2023-01-07T06:49:30.408Z,2.17
2023-01-07T06:51:56.962Z,2.35
2023-01-07T06:54:23.517Z,2.40
2023-01-07T06:56:50.137Z,2.30
2023-01-07T06:59:16.680Z,2.30
2023-01-07T07:01:45.655Z,2.28
2023-01-07T07:04:13.052Z,2.10
2023-01-07T07:06:39.650Z,2.20
2023-01-07T07:09:06.213Z,2.35
2023-01-07T07:11:34.940Z,2.35
2023-01-07T07:14:01.609Z,2.00
2023-01-07T07:16:29.364Z,1.80
2023-01-07T07:18:56.817Z,2.17
2023-01-07T07:21:23.413Z,1.75
2023-01-07T07:23:52.415Z,2.10
2023-01-07T07:26:18.964Z,1.77
2023-01-07T07:28:45.579Z,1.98
2023-01-07T07:31:12.244Z,2.22
2023-01-07T07:33:38.860Z,2.78
2023-01-07T07:36:05.713Z,2.10
2023-01-07T07:38:32.291Z,2.10
2023-01-07T07:41:00.484Z,2.38
2023-01-07T07:43:29.300Z,2.38
2023-01-07T07:45:57.885Z,2.40
2023-01-07T07:48:24.596Z,2.13
2023-01-07T07:50:52.118Z,2.30
2023-01-07T07:53:19.628Z,7.13
2023-01-07T07:55:46.649Z,7.20
2023-01-07T07:58:13.781Z,8.70
2023-01-07T08:00:40.444Z,6.20
2023-01-07T08:03:10.355Z,4.97
2023-01-07T08:05:41.327Z,5.32
2023-01-07T08:08:09.507Z,3.50
2023-01-07T08:10:36.107Z,3.83
2023-01-07T08:13:02.933Z,4.57
2023-01-07T08:15:29.522Z,7.63
2023-01-07T08:18:04.265Z,6.38
2023-01-07T08:20:35.143Z,7.10
2023-01-07T08:23:03.654Z,7.80
2023-01-07T08:25:32.332Z,6.60
2023-01-07T08:28:00.077Z,6.80
2023-01-07T08:30:27.239Z,6.18
2023-01-07T08:32:53.933Z,7.05
2023-01-07T08:35:21.353Z,6.88
2023-01-07T08:37:48.008Z,12.60
2023-01-07T08:40:14.602Z,17.48
2023-01-07T08:42:41.629Z,18.73
2023-01-07T08:45:09.834Z,18.40
2023-01-07T08:47:36.507Z,10.07
2023-01-07T08:50:04.048Z,11.20
2023-01-07T08:52:30.533Z,9.00
2023-01-07T08:54:56.980Z,6.32
2023-01-07T08:57:23.462Z,4.85
2023-01-07T08:59:50.117Z,5.57
2023-01-07T09:02:18.935Z,4.60
2023-01-07T09:04:45.701Z,4.05
2023-01-07T09:07:12.683Z,4.25
2023-01-07T09:09:39.219Z,3.70
2023-01-07T09:12:06.411Z,3.53
2023-01-07T09:14:32.995Z,3.70
2023-01-07T09:16:59.949Z,3.83
2023-01-07T09:19:26.385Z,4.80
2023-01-07T09:21:52.869Z,4.65
2023-01-07T09:24:19.334Z,4.78
2023-01-07T09:26:46.264Z,4.95
2023-01-07T09:29:12.730Z,4.00
2023-01-07T09:31:39.381Z,3.33
2023-01-07T09:34:05.920Z,3.65
2023-01-07T09:36:33.623Z,3.33
2023-01-07T09:39:00.256Z,3.60
2023-01-07T09:41:47.422Z,3.50
2023-01-07T09:44:49.396Z,3.03
2023-01-07T09:47:19.418Z,3.33
2023-01-07T09:49:50.839Z,3.42
2023-01-07T09:52:33.415Z,3.38
2023-01-07T09:55:23.008Z,3.47
2023-01-07T09:57:49.696Z,3.30
2023-01-07T10:00:22.898Z,3.30
2023-01-07T10:02:52.662Z,3.50
2023-01-07T10:05:34.486Z,3.72
2023-01-07T10:08:29.008Z,4.28
2023-01-07T10:11:25.892Z,4.00
2023-01-07T10:14:23.055Z,3.80
2023-01-07T10:17:22.807Z,3.65
2023-01-07T10:20:15.513Z,2.50
2023-01-07T10:23:15.136Z,2.25
2023-01-07T10:25:49.508Z,2.45
2023-01-07T10:28:32.315Z,5.55
2023-01-07T10:31:00.507Z,3.10
2023-01-07T10:33:29.812Z,2.58
2023-01-07T10:36:15.062Z,2.20
2023-01-07T10:38:44.844Z,2.10
2023-01-07T10:41:25.540Z,1.92
2023-01-07T10:44:10.224Z,2.42
2023-01-07T10:46:43.372Z,2.40
2023-01-07T10:49:25.212Z,2.65
2023-01-07T10:52:23.718Z,2.30
2023-01-07T10:55:02.577Z,2.20
2023-01-07T10:57:31.570Z,2.00
2023-01-07T11:00:02.604Z,2.00
2023-01-07T11:02:31.638Z,1.85
2023-01-07T11:04:59.888Z,1.85
2023-01-07T11:07:47.022Z,1.88
2023-01-07T11:10:24.112Z,2.17
2023-01-07T11:12:55.583Z,2.20
2023-01-07T11:15:32.473Z,1.98
2023-01-07T11:18:04.014Z,2.15
2023-01-07T11:20:50.759Z,2.25
2023-01-07T11:23:37.648Z,2.30
2023-01-07T11:26:13.347Z,2.13
2023-01-07T11:28:50.558Z,2.00
2023-01-07T11:31:17.603Z,2.10
2023-01-07T11:34:02.206Z,2.10
2023-01-07T11:36:43.230Z,2.03
2023-01-07T11:39:17.853Z,2.53
2023-01-07T11:42:22.197Z,2.67
2023-01-07T11:44:48.783Z,2.45
2023-01-07T11:47:17.445Z,2.45
2023-01-07T11:49:45.794Z,2.10
2023-01-07T11:52:21.377Z,2.30
2023-01-07T11:54:54.731Z,2.30
2023-01-07T11:57:25.496Z,2.50
2023-01-07T12:00:10.802Z,2.38
2023-01-07T12:02:39.920Z,2.50
2023-01-07T12:05:18.940Z,2.40
2023-01-07T12:07:47.801Z,3.05
2023-01-07T12:10:28.402Z,2.90
2023-01-07T12:12:55.557Z,2.45
2023-01-07T12:15:27.397Z,2.65
2023-01-07T12:18:09.364Z,2.38
2023-01-07T12:20:38.961Z,2.63
2023-01-07T12:23:31.328Z,2.80
2023-01-07T12:26:18.283Z,2.50
2023-01-07T12:28:44.790Z,2.90
2023-01-07T12:31:18.227Z,2.95
2023-01-07T12:34:10.529Z,2.78
2023-01-07T12:36:49.977Z,3.03
2023-01-07T12:39:24.387Z,2.78
2023-01-07T12:42:01.363Z,3.00
2023-01-07T12:44:30.258Z,3.05
2023-01-07T12:47:30.774Z,3.10
2023-01-07T12:50:16.595Z,2.58
2023-01-07T12:52:51.974Z,2.88
2023-01-07T12:55:21.042Z,3.13
2023-01-07T12:58:00.802Z,4.03
2023-01-07T13:00:36.763Z,3.38
2023-01-07T13:03:50.504Z,3.28
2023-01-07T13:06:55.326Z,2.90
2023-01-07T13:09:35.246Z,3.00
2023-01-07T13:12:41.952Z,4.13
2023-01-07T13:15:20.890Z,3.65
2023-01-07T13:17:53.923Z,3.78
2023-01-07T13:20:34.721Z,4.10
2023-01-07T13:23:04.494Z,4.15
2023-01-07T13:25:40.043Z,5.60
2023-01-07T13:28:27.623Z,4.15
2023-01-07T13:31:21.713Z,4.82
2023-01-07T13:34:00.589Z,3.65
2023-01-07T13:36:39.293Z,7.03
2023-01-07T13:39:46.650Z,4.55
2023-01-07T13:42:35.027Z,4.00
2023-01-07T13:45:25.929Z,4.07
2023-01-07T13:47:56.120Z,7.10
2023-01-07T13:50:33.624Z,4.43
2023-01-07T13:53:06.446Z,4.55
2023-01-07T13:55:35.395Z,4.40
2023-01-07T13:58:30.725Z,4.18
2023-01-07T14:01:14.809Z,4.28
2023-01-07T14:03:51.699Z,4.18
2023-01-07T14:06:21.204Z,4.28
2023-01-07T14:08:55.925Z,3.50
2023-01-07T14:11:35.350Z,3.95
2023-01-07T14:14:26.180Z,4.30
2023-01-07T14:17:14.310Z,3.85
2023-01-07T14:19:56.118Z,3.65
2023-01-07T14:22:40.764Z,3.78
2023-01-07T14:25:25.906Z,3.65
2023-01-07T14:27:55.643Z,3.88
2023-01-07T14:30:27.216Z,3.97
2023-01-07T14:33:02.932Z,3.83
2023-01-07T14:35:43.244Z,3.90
2023-01-07T14:38:31.560Z,4.60
2023-01-07T14:41:09.206Z,4.97
2023-01-07T14:43:45.659Z,4.20
2023-01-07T14:46:46.438Z,4.55
2023-01-07T14:49:41.461Z,4.90
2023-01-07T14:52:17.635Z,3.38
2023-01-07T14:55:08.889Z,4.15
2023-01-07T14:57:36.162Z,3.15
2023-01-07T15:00:14.954Z,3.50
2023-01-07T15:02:50.579Z,3.10
2023-01-07T15:05:51.284Z,3.70
2023-01-07T15:08:39.476Z,3.60
2023-01-07T15:11:37.188Z,4.05
2023-01-07T15:14:31.741Z,3.38
2023-01-07T15:16:58.774Z,3.50
2023-01-07T15:19:25.511Z,3.97
2023-01-07T15:22:21.468Z,3.65
2023-01-07T15:25:08.607Z,3.55
2023-01-07T15:27:51.497Z,3.10
2023-01-07T15:30:29.265Z,3.20
2023-01-07T15:33:01.718Z,3.05
2023-01-07T15:35:34.188Z,3.50
2023-01-07T15:38:05.058Z,10.07
2023-01-07T15:40:31.866Z,7.07
2023-01-07T15:42:59.084Z,9.27
2023-01-07T15:45:27.796Z,36.90
2023-01-07T15:48:05.951Z,29.02
2023-01-07T15:50:40.927Z,19.95
2023-01-07T15:53:10.544Z,9.63
2023-01-07T15:55:38.539Z,10.15
2023-01-07T15:58:12.263Z,10.00
2023-01-07T16:03:08.406Z,12.30
2023-01-07T16:05:38.379Z,9.07
2023-01-07T16:08:05.474Z,7.30
2023-01-07T16:10:35.736Z,8.02
2023-01-07T16:13:16.312Z,7.43
2023-01-07T16:15:42.975Z,8.40
2023-01-07T16:18:09.546Z,10.95
2023-01-07T16:20:48.910Z,10.57
2023-01-07T16:23:25.977Z,9.85
2023-01-07T16:26:04.191Z,9.65
2023-01-07T16:28:38.819Z,9.35
2023-01-07T16:31:09.116Z,10.77
2023-01-07T16:33:37.804Z,12.32
2023-01-07T16:36:13.994Z,14.43
2023-01-07T16:38:40.856Z,13.27
2023-01-07T16:41:07.771Z,14.88
2023-01-07T16:43:40.474Z,11.35
2023-01-07T16:46:26.999Z,11.40
2023-01-07T16:49:09.071Z,9.98
2023-01-07T16:51:40.955Z,13.02
2023-01-07T16:54:25.793Z,11.77
2023-01-07T16:56:56.848Z,11.57
2023-01-07T16:59:28.758Z,8.55
2023-01-07T17:01:57.206Z,5.88
2023-01-07T17:04:28.008Z,5.20
2023-01-07T17:06:54.728Z,6.47
2023-01-07T17:09:31.480Z,6.65
2023-01-07T17:11:57.996Z,8.88
2023-01-07T17:14:33.651Z,10.75
2023-01-07T17:17:08.916Z,10.10
2023-01-07T17:19:46.210Z,9.80
2023-01-07T17:22:29.658Z,8.82
2023-01-07T17:25:09.839Z,8.40
2023-01-07T17:27:44.190Z,8.05
2023-01-07T17:30:21.422Z,8.50
2023-01-07T17:32:50.831Z,6.90
2023-01-07T17:35:23.440Z,6.53
2023-01-07T17:37:50.849Z,6.47
2023-01-07T17:40:18.078Z,6.13
2023-01-07T17:43:07.225Z,6.55
2023-01-07T17:45:33.981Z,6.63
2023-01-07T17:48:08.407Z,6.05
2023-01-07T17:50:37.099Z,4.85
2023-01-07T17:53:04.339Z,5.03
2023-01-07T17:55:34.471Z,4.25
2023-01-07T17:58:01.045Z,5.10
2023-01-07T18:00:30.838Z,6.38
2023-01-07T18:02:58.231Z,5.38
2023-01-07T18:05:26.370Z,5.63
2023-01-07T18:07:53.560Z,5.57
2023-01-07T18:10:26.076Z,5.53
2023-01-07T18:12:52.707Z,5.85
2023-01-07T18:15:27.745Z,5.68
2023-01-07T18:17:54.324Z,8.23
2023-01-07T18:20:22.220Z,11.23
2023-01-07T18:22:49.046Z,10.07
2023-01-07T18:25:21.320Z,11.10
2023-01-07T18:27:52.541Z,11.15
2023-01-07T18:30:21.359Z,10.80
2023-01-07T18:32:48.458Z,12.25
2023-01-07T18:35:19.197Z,10.65
2023-01-07T18:37:50.282Z,11.85
2023-01-07T18:40:17.804Z,22.05
2023-01-07T18:42:44.463Z,17.17
2023-01-07T18:45:11.345Z,20.90
2023-01-07T18:47:38.114Z,14.55
2023-01-07T18:50:06.401Z,12.50
2023-01-07T18:52:33.932Z,10.95
2023-01-07T18:55:02.795Z,12.18
2023-01-07T18:57:29.383Z,14.02
2023-01-07T18:59:55.975Z,15.10
2023-01-07T19:02:22.602Z,15.23
2023-01-07T19:04:51.682Z,14.68
2023-01-07T19:07:19.023Z,14.18
2023-01-07T19:09:45.827Z,14.07
2023-01-07T19:12:12.564Z,11.90
2023-01-07T19:14:40.496Z,11.10
2023-01-07T19:17:08.035Z,9.95
2023-01-07T19:19:47.771Z,8.88
2023-01-07T19:22:16.189Z,15.73
2023-01-07T19:24:43.100Z,14.90
2023-01-07T19:27:12.444Z,22.33
2023-01-07T19:29:39.020Z,11.85
2023-01-07T19:32:07.957Z,10.45
2023-01-07T19:34:34.567Z,13.70
2023-01-07T19:37:01.300Z,11.90
2023-01-07T19:39:30.318Z,9.48
2023-01-07T19:41:56.921Z,6.75
2023-01-07T19:44:23.515Z,6.50
2023-01-07T19:46:52.297Z,6.68
2023-01-07T19:49:18.863Z,9.00
2023-01-07T19:51:45.495Z,19.45
2023-01-07T19:54:16.877Z,7.90
2023-01-07T19:56:43.851Z,10.65
2023-01-07T19:59:10.860Z,7.70
2023-01-07T20:01:38.982Z,7.13
2023-01-07T20:04:07.391Z,11.05
2023-01-07T20:06:38.846Z,13.55
2023-01-07T20:09:10.721Z,17.65
2023-01-07T20:11:38.889Z,17.70
2023-01-07T20:14:07.519Z,17.17
2023-01-07T20:16:39.544Z,14.70
2023-01-07T20:19:06.577Z,13.25
2023-01-07T20:21:33.529Z,12.93
2023-01-07T20:24:00.293Z,15.18
2023-01-07T20:26:29.907Z,12.77
2023-01-07T20:28:59.252Z,16.25
2023-01-07T20:31:28.242Z,19.50
2023-01-07T20:33:57.780Z,18.65
2023-01-07T20:36:27.389Z,17.17
2023-01-07T20:38:54.134Z,16.90
2023-01-07T20:41:23.191Z,18.17
2023-01-07T20:43:58.044Z,18.02
2023-01-07T20:46:26.133Z,20.80
2023-01-07T20:48:53.072Z,18.55
2023-01-07T20:51:19.981Z,20.88
2023-01-07T20:53:47.055Z,21.17
2023-01-07T20:56:17.929Z,18.15
2023-01-07T20:58:45.021Z,18.13
2023-01-07T21:01:14.279Z,17.40
2023-01-07T21:03:41.389Z,16.25
2023-01-07T21:06:12.427Z,14.65
2023-01-07T21:08:39.677Z,12.95
2023-01-07T21:11:14.844Z,16.08
2023-01-07T21:13:41.658Z,15.98
2023-01-07T21:16:08.645Z,17.73
2023-01-07T21:18:35.426Z,26.23
2023-01-07T21:21:11.574Z,24.95
2023-01-07T21:23:38.261Z,22.20
2023-01-07T21:26:05.737Z,20.50
2023-01-07T21:28:32.841Z,18.92
2023-01-07T21:31:06.014Z,18.05
2023-01-07T21:33:33.497Z,13.82
2023-01-07T21:36:00.097Z,13.43
2023-01-07T21:38:26.639Z,13.07
2023-01-07T21:40:54.011Z,15.30
2023-01-07T21:43:20.543Z,15.40
2023-01-07T21:45:47.045Z,15.57
2023-01-07T21:48:13.561Z,16.55
2023-01-07T21:50:40.077Z,16.30
2023-01-07T21:53:09.049Z,14.60
2023-01-07T21:55:37.909Z,14.98
2023-01-07T21:58:04.428Z,15.07
2023-01-07T22:00:30.867Z,15.70
2023-01-07T22:02:57.396Z,14.88
2023-01-07T22:05:23.883Z,16.83
2023-01-07T22:07:50.348Z,14.00
2023-01-07T22:10:16.873Z,16.60
2023-01-07T22:12:43.443Z,20.52
2023-01-07T22:15:10.126Z,24.33
2023-01-07T22:17:36.617Z,17.30
2023-01-07T22:20:05.970Z,13.63
2023-01-07T22:22:32.449Z,22.58
2023-01-07T22:24:59.122Z,25.17
2023-01-07T22:27:25.584Z,25.27
2023-01-07T22:29:52.052Z,24.67
2023-01-07T22:32:18.692Z,28.05
2023-01-07T22:34:45.149Z,23.90
2023-01-07T22:37:15.653Z,20.90
2023-01-07T22:39:54.070Z,13.65
2023-01-07T22:42:25.179Z,18.73
2023-01-07T22:45:03.043Z,17.77
2023-01-07T22:47:35.364Z,12.50
2023-01-07T22:50:04.527Z,12.73
2023-01-07T22:52:31.295Z,13.52
2023-01-07T22:55:00.543Z,12.23
2023-01-07T22:57:28.326Z,19.45
2023-01-07T22:59:54.912Z,17.48
2023-01-07T23:02:21.377Z,15.70
2023-01-07T23:04:47.820Z,13.20
2023-01-07T23:07:14.316Z,11.60
2023-01-07T23:09:41.619Z,22.92
2023-01-07T23:12:11.020Z,15.18
2023-01-07T23:14:37.484Z,12.32
2023-01-07T23:17:03.996Z,11.98
2023-01-07T23:19:32.086Z,16.17
2023-01-07T23:21:59.023Z,27.88
2023-01-07T23:24:25.492Z,24.30
2023-01-07T23:26:53.646Z,53.30
2023-01-07T23:29:20.586Z,16.67
2023-01-07T23:31:47.188Z,11.45
2023-01-07T23:34:14.767Z,10.75
2023-01-07T23:36:41.335Z,10.85
2023-01-07T23:39:07.951Z,11.23
2023-01-07T23:41:34.859Z,11.38
2023-01-07T23:44:01.664Z,13.88
2023-01-07T23:46:28.236Z,22.92
2023-01-07T23:48:54.715Z,22.02
2023-01-07T23:51:21.848Z,17.75
2023-01-07T23:53:49.066Z,14.13
2023-01-07T23:56:19.291Z,13.35
2023-01-07T23:58:48.900Z,12.25
